createdAt,value
2022-11-05T00:02:16.776Z,13.30
2022-11-05T00:04:36.972Z,12.32
2022-11-05T00:06:57.424Z,11.15
2022-11-05T00:09:17.451Z,19.08
2022-11-05T00:11:19.027Z,14.82
2022-11-05T00:13:39.127Z,17.92
2022-11-05T00:15:59.429Z,14.85
2022-11-05T00:18:00.917Z,13.45
2022-11-05T00:20:02.433Z,14.65
2022-11-05T00:22:22.381Z,24.67
2022-11-05T00:24:43.020Z,16.40
2022-11-05T00:26:44.428Z,24.13
2022-11-05T00:28:45.878Z,20.63
2022-11-05T00:30:47.274Z,21.25
2022-11-05T00:32:49.727Z,19.10
2022-11-05T00:34:51.150Z,16.92
2022-11-05T00:36:52.752Z,18.80
2022-11-05T00:38:54.566Z,23.48
2022-11-05T00:40:56.314Z,16.73
2022-11-05T00:43:16.353Z,18.15
2022-11-05T00:45:18.232Z,18.45
2022-11-05T00:47:38.589Z,21.75
2022-11-05T00:49:40.048Z,20.10
2022-11-05T00:51:41.565Z,15.85
2022-11-05T00:53:43.251Z,20.20
2022-11-05T00:55:45.226Z,14.15
2022-11-05T00:57:46.836Z,18.58
2022-11-05T00:59:48.290Z,16.90
2022-11-05T01:01:49.821Z,18.30
2022-11-05T01:03:52.095Z,17.17
2022-11-05T01:05:57.882Z,17.08
2022-11-05T01:07:59.777Z,19.90
2022-11-05T01:10:01.205Z,32.10
2022-11-05T01:12:02.660Z,22.13
2022-11-05T01:14:05.578Z,28.15
2022-11-05T01:16:08.139Z,27.25
2022-11-05T01:18:09.900Z,28.15
2022-11-05T01:20:11.504Z,27.55
2022-11-05T01:22:12.893Z,28.08
2022-11-05T01:24:14.352Z,28.00
2022-11-05T01:26:15.777Z,24.02
2022-11-05T01:28:17.443Z,21.75
2022-11-05T01:30:19.064Z,24.02
2022-11-05T01:32:20.514Z,27.08
2022-11-05T01:34:21.935Z,28.17
2022-11-05T01:36:23.520Z,32.65
2022-11-05T01:38:29.373Z,26.75
2022-11-05T01:40:35.889Z,29.52
2022-11-05T01:42:39.498Z,28.33
2022-11-05T01:45:00.231Z,27.05
2022-11-05T01:47:03.968Z,22.63
2022-11-05T01:49:13.585Z,23.45
2022-11-05T01:51:19.409Z,26.60
2022-11-05T01:53:22.485Z,24.92
2022-11-05T01:55:27.854Z,23.13
2022-11-05T01:57:32.795Z,22.40
2022-11-05T01:59:38.285Z,21.75
2022-11-05T02:01:41.915Z,26.67
2022-11-05T02:03:46.611Z,25.52
2022-11-05T02:05:50.576Z,22.23
2022-11-05T02:07:55.689Z,23.88
2022-11-05T02:10:10.819Z,24.88
2022-11-05T02:12:13.344Z,22.85
2022-11-05T02:14:14.879Z,20.38
2022-11-05T02:16:35.024Z,23.05
2022-11-05T02:18:36.568Z,25.38
2022-11-05T02:20:50.963Z,23.73
2022-11-05T02:22:56.351Z,30.63
2022-11-05T02:27:02.168Z,24.40
2022-11-05T02:29:22.098Z,21.15
2022-11-05T02:31:29.169Z,24.05
2022-11-05T02:33:48.536Z,20.45
2022-11-05T02:36:09.216Z,17.77
2022-11-05T02:38:16.099Z,21.00
2022-11-05T02:40:21.911Z,16.45
2022-11-05T02:42:52.501Z,27.52
2022-11-05T02:45:04.476Z,24.48
2022-11-05T02:47:17.866Z,29.33
2022-11-05T02:49:38.766Z,24.40
2022-11-05T02:51:56.640Z,14.70
2022-11-05T02:54:07.195Z,11.15
2022-11-05T02:56:12.525Z,21.55
2022-11-05T02:58:14.184Z,17.13
2022-11-05T03:00:34.465Z,22.40
2022-11-05T03:02:36.301Z,19.95
2022-11-05T03:04:37.791Z,21.55
2022-11-05T03:06:54.986Z,22.50
2022-11-05T03:09:03.523Z,20.38
2022-11-05T03:11:11.276Z,26.48
2022-11-05T03:13:19.182Z,26.45
2022-11-05T03:15:50.735Z,34.17
2022-11-05T03:17:52.144Z,39.08
2022-11-05T03:20:05.906Z,31.90
2022-11-05T03:22:16.134Z,42.70
2022-11-05T03:24:22.737Z,33.72
2022-11-05T03:26:42.804Z,31.80
2022-11-05T03:28:46.746Z,24.05
2022-11-05T03:30:50.361Z,29.40
2022-11-05T03:32:56.940Z,26.75
2022-11-05T03:35:04.034Z,22.00
2022-11-05T03:37:06.339Z,29.90
2022-11-05T03:39:09.177Z,25.67
2022-11-05T03:41:12.948Z,28.38
2022-11-05T03:43:14.596Z,23.63
2022-11-05T03:45:21.844Z,27.27
2022-11-05T03:47:25.785Z,24.65
2022-11-05T03:49:30.992Z,24.05
2022-11-05T03:51:35.273Z,20.65
2022-11-05T03:55:44.555Z,20.10
2022-11-05T03:57:48.492Z,18.38
2022-11-05T03:59:51.159Z,23.50
2022-11-05T04:01:53.669Z,21.10
2022-11-05T04:03:55.273Z,20.95
2022-11-05T04:06:15.532Z,17.88
2022-11-05T04:08:35.346Z,21.55
2022-11-05T04:10:55.197Z,20.08
2022-11-05T04:13:15.180Z,19.75
2022-11-05T04:15:16.674Z,21.67
2022-11-05T04:17:18.169Z,21.45
2022-11-05T04:19:39.607Z,15.15
2022-11-05T04:21:59.713Z,17.60
2022-11-05T04:24:10.494Z,19.00
2022-11-05T04:26:12.100Z,20.02
2022-11-05T04:28:13.848Z,19.70
2022-11-05T04:30:19.083Z,20.75
2022-11-05T04:32:20.522Z,17.27
2022-11-05T04:34:22.270Z,18.33
2022-11-05T04:36:23.786Z,25.20
2022-11-05T04:38:25.180Z,18.08
2022-11-05T04:40:26.896Z,21.85
2022-11-05T04:42:30.746Z,22.25
2022-11-05T04:44:42.099Z,24.50
2022-11-05T04:46:47.849Z,25.35
2022-11-05T04:48:51.424Z,21.08
2022-11-05T04:50:55.209Z,24.85
2022-11-05T04:52:58.743Z,29.17
2022-11-05T04:55:01.321Z,21.55
2022-11-05T04:57:05.071Z,20.67
2022-11-05T04:59:08.787Z,27.58
2022-11-05T05:01:14.655Z,25.20
2022-11-05T05:03:18.154Z,24.30
2022-11-05T05:05:23.879Z,19.63
2022-11-05T05:07:26.716Z,21.55
2022-11-05T05:09:30.449Z,32.30
2022-11-05T05:13:38.018Z,21.55
2022-11-05T05:17:42.928Z,24.70
2022-11-05T05:20:03.053Z,18.10
2022-11-05T05:22:04.464Z,22.70
2022-11-05T05:24:08.778Z,21.13
2022-11-05T05:26:10.477Z,15.15
2022-11-05T05:28:11.865Z,17.20
2022-11-05T05:30:13.594Z,21.23
2022-11-05T05:32:15.005Z,17.10
2022-11-05T05:34:16.730Z,13.55
2022-11-05T05:36:18.110Z,15.10
2022-11-05T05:38:19.550Z,19.17
2022-11-05T05:40:21.069Z,16.80
2022-11-05T05:42:22.947Z,12.95
2022-11-05T05:44:24.466Z,18.65
2022-11-05T05:46:25.833Z,22.80
2022-11-05T05:48:27.235Z,20.80
2022-11-05T05:50:28.873Z,21.23
2022-11-05T05:52:30.292Z,21.67
2022-11-05T05:54:33.553Z,23.20
2022-11-05T05:56:37.750Z,20.63
2022-11-05T05:58:39.502Z,20.55
2022-11-05T06:00:40.919Z,19.83
2022-11-05T06:02:42.694Z,17.58
2022-11-05T06:04:44.209Z,18.63
2022-11-05T06:06:46.939Z,21.23
2022-11-05T06:08:49.114Z,24.88
2022-11-05T06:10:51.367Z,16.30
2022-11-05T06:12:52.927Z,24.90
2022-11-05T06:14:54.373Z,16.52
2022-11-05T06:16:55.821Z,19.25
2022-11-05T06:18:57.181Z,21.05
2022-11-05T06:21:05.697Z,21.58
2022-11-05T06:23:07.148Z,14.63
2022-11-05T06:25:09.084Z,20.55
2022-11-05T06:27:10.536Z,23.33
2022-11-05T06:29:11.926Z,20.83
2022-11-05T06:31:14.350Z,20.42
2022-11-05T06:33:16.033Z,18.92
2022-11-05T06:35:17.537Z,19.80
2022-11-05T06:37:18.957Z,15.68
2022-11-05T06:39:20.380Z,15.50
2022-11-05T06:41:21.804Z,19.48
2022-11-05T06:43:23.401Z,24.52
2022-11-05T06:45:25.094Z,21.95
2022-11-05T06:47:26.600Z,18.77
2022-11-05T06:49:28.084Z,25.30
2022-11-05T06:51:30.256Z,26.35
2022-11-05T06:53:31.645Z,19.52
2022-11-05T06:55:33.433Z,24.35
2022-11-05T06:57:37.207Z,21.85
2022-11-05T06:59:39.348Z,24.55
2022-11-05T07:01:41.385Z,23.60
2022-11-05T07:03:44.666Z,18.48
2022-11-05T07:05:47.520Z,25.05
2022-11-05T07:07:49.202Z,20.27
2022-11-05T07:09:52.260Z,25.63
2022-11-05T07:11:53.717Z,25.90
2022-11-05T07:13:55.393Z,23.23
2022-11-05T07:15:56.900Z,25.60
2022-11-05T07:17:59.171Z,29.10
2022-11-05T07:20:00.599Z,23.85
2022-11-05T07:22:02.038Z,24.27
2022-11-05T07:24:03.650Z,27.40
2022-11-05T07:26:05.130Z,29.85
2022-11-05T07:28:06.851Z,24.73
2022-11-05T07:30:10.004Z,29.40
2022-11-05T07:32:11.489Z,34.25
2022-11-05T07:34:13.152Z,40.63
2022-11-05T07:36:14.864Z,27.13
2022-11-05T07:38:17.019Z,29.35
2022-11-05T07:40:22.028Z,37.90
2022-11-05T07:42:23.421Z,37.45
2022-11-05T07:44:25.010Z,44.78
2022-11-05T07:46:28.472Z,29.48
2022-11-05T07:48:30.348Z,39.60
2022-11-05T07:50:40.710Z,40.05
2022-11-05T07:52:44.921Z,40.75
2022-11-05T07:54:49.174Z,39.88
2022-11-05T07:56:53.023Z,34.50
2022-11-05T07:58:56.612Z,38.92
2022-11-05T08:01:00.633Z,37.92
2022-11-05T08:05:11.744Z,40.95
2022-11-05T08:07:15.404Z,53.42
2022-11-05T08:09:18.817Z,46.75
2022-11-05T08:11:22.745Z,39.72
2022-11-05T08:13:26.458Z,35.83
2022-11-05T08:15:29.696Z,34.40
2022-11-05T08:17:33.262Z,51.05
2022-11-05T08:19:36.015Z,37.63
2022-11-05T08:21:39.710Z,39.35
2022-11-05T08:23:42.959Z,36.63
2022-11-05T08:25:44.428Z,41.63
2022-11-05T08:27:45.904Z,41.65
2022-11-05T08:29:47.376Z,40.47
2022-11-05T08:31:49.085Z,40.70
2022-11-05T08:33:50.695Z,39.00
2022-11-05T08:35:52.366Z,38.28
2022-11-05T08:37:57.916Z,42.50
2022-11-05T08:39:59.373Z,41.78
2022-11-05T08:42:00.786Z,62.85
2022-11-05T08:44:02.260Z,37.30
2022-11-05T08:46:03.780Z,35.13
2022-11-05T08:48:06.852Z,38.38
2022-11-05T08:50:08.569Z,35.28
2022-11-05T08:52:11.486Z,37.88
2022-11-05T08:54:13.405Z,37.95
2022-11-05T08:56:14.873Z,37.17
2022-11-05T08:58:17.074Z,29.42
2022-11-05T09:00:18.708Z,45.03
2022-11-05T09:02:20.596Z,43.15
2022-11-05T09:04:22.274Z,51.08
2022-11-05T09:06:23.859Z,39.22
2022-11-05T09:08:25.393Z,58.53
2022-11-05T09:10:27.052Z,46.85
2022-11-05T09:12:28.722Z,39.05
2022-11-05T09:14:31.502Z,36.42
2022-11-05T09:16:34.460Z,40.00
2022-11-05T09:18:35.917Z,43.35
2022-11-05T09:20:39.718Z,34.85
2022-11-05T09:22:43.439Z,48.35
2022-11-05T09:24:45.400Z,37.35
2022-11-05T09:26:46.853Z,36.17
2022-11-05T09:28:48.441Z,34.70
2022-11-05T09:30:50.986Z,23.50
2022-11-05T09:32:52.431Z,28.48
2022-11-05T09:34:53.918Z,25.63
2022-11-05T09:36:57.073Z,28.80
2022-11-05T09:38:58.612Z,24.83
2022-11-05T09:41:08.839Z,23.00
2022-11-05T09:43:16.449Z,19.40
2022-11-05T09:45:20.261Z,19.42
2022-11-05T09:47:32.838Z,21.88
2022-11-05T09:49:41.575Z,20.13
2022-11-05T09:51:43.253Z,20.15
2022-11-05T09:53:45.540Z,29.25
2022-11-05T09:55:52.105Z,25.95
2022-11-05T09:57:56.829Z,27.63
2022-11-05T10:00:00.738Z,29.27
2022-11-05T10:02:27.085Z,25.05
2022-11-05T10:04:31.119Z,27.15
2022-11-05T10:06:33.435Z,25.80
2022-11-05T10:08:38.478Z,25.70
2022-11-05T10:10:43.281Z,21.63
2022-11-05T10:12:50.885Z,20.98
2022-11-05T10:15:15.450Z,26.33
2022-11-05T10:17:24.441Z,16.08
2022-11-05T10:19:37.259Z,20.08
2022-11-05T10:22:04.828Z,22.42
2022-11-05T10:24:01.490Z,17.00
2022-11-05T10:26:05.294Z,21.75
2022-11-05T10:28:08.148Z,20.70
2022-11-05T10:30:13.764Z,26.50
2022-11-05T10:32:20.263Z,26.48
2022-11-05T10:34:23.923Z,25.73
2022-11-05T10:36:27.398Z,13.45
2022-11-05T10:38:29.221Z,21.05
2022-11-05T10:40:46.092Z,15.10
2022-11-05T10:43:14.168Z,29.48
2022-11-05T10:45:31.513Z,21.95
2022-11-05T10:47:38.388Z,21.95
2022-11-05T10:50:00.112Z,20.90
2022-11-05T10:52:19.424Z,14.52
2022-11-05T10:54:28.360Z,25.80
2022-11-05T10:56:44.429Z,20.13
2022-11-05T10:58:59.283Z,33.30
2022-11-05T11:01:05.946Z,16.75
2022-11-05T11:03:29.916Z,20.42
2022-11-05T11:05:37.662Z,28.77
2022-11-05T11:07:42.540Z,24.95
2022-11-05T11:09:48.778Z,18.50
2022-11-05T11:12:01.993Z,13.90
2022-11-05T11:14:07.439Z,22.48
2022-11-05T11:16:18.998Z,14.00
2022-11-05T11:18:25.156Z,18.83
2022-11-05T11:20:30.726Z,16.33
2022-11-05T11:22:34.040Z,9.40
2022-11-05T11:24:42.443Z,15.80
2022-11-05T11:26:45.634Z,11.70
2022-11-05T11:28:55.619Z,14.60
2022-11-05T11:31:03.088Z,10.63
2022-11-05T11:33:09.000Z,19.40
2022-11-05T11:35:25.099Z,12.07
2022-11-05T11:37:28.734Z,12.65
2022-11-05T11:39:31.164Z,14.10
2022-11-05T11:41:35.281Z,22.52
2022-11-05T11:43:38.360Z,16.52
2022-11-05T11:45:51.847Z,13.82
2022-11-05T11:47:54.886Z,24.65
2022-11-05T11:50:00.472Z,21.38
2022-11-05T11:52:05.253Z,25.45
2022-11-05T11:54:18.150Z,23.25
2022-11-05T11:56:20.472Z,26.33
2022-11-05T11:58:23.685Z,18.60
2022-11-05T12:00:26.998Z,13.87
2022-11-05T12:02:47.304Z,22.02
2022-11-05T12:04:51.589Z,17.20
2022-11-05T12:07:02.555Z,24.70
2022-11-05T12:09:07.259Z,8.38
2022-11-05T12:11:16.158Z,15.32
2022-11-05T12:13:23.655Z,7.97
2022-11-05T12:15:51.354Z,16.83
2022-11-05T12:17:59.723Z,12.48
2022-11-05T12:20:10.456Z,14.18
2022-11-05T12:22:14.936Z,17.38
2022-11-05T12:24:32.361Z,15.95
2022-11-05T12:26:33.995Z,16.60
2022-11-05T12:29:16.803Z,13.93
2022-11-05T12:31:20.393Z,14.15
2022-11-05T12:33:38.751Z,16.77
2022-11-05T12:35:48.839Z,21.40
2022-11-05T12:38:09.884Z,14.60
2022-11-05T12:40:30.025Z,24.45
2022-11-05T12:42:31.432Z,17.67
2022-11-05T12:44:41.137Z,24.20
2022-11-05T12:46:50.222Z,23.50
2022-11-05T12:49:04.029Z,25.10
2022-11-05T12:51:24.412Z,24.85
2022-11-05T12:53:35.236Z,18.08
2022-11-05T12:55:38.299Z,16.65
2022-11-05T12:57:42.022Z,23.77
2022-11-05T12:59:49.413Z,20.73
2022-11-05T13:01:56.587Z,18.67
2022-11-05T13:04:00.860Z,20.02
2022-11-05T13:06:31.746Z,17.48
2022-11-05T13:08:52.352Z,15.85
2022-11-05T13:11:03.351Z,23.48
2022-11-05T13:13:18.214Z,21.30
2022-11-05T13:15:26.153Z,19.48
2022-11-05T13:17:36.212Z,25.02
2022-11-05T13:19:41.229Z,26.45
2022-11-05T13:21:44.294Z,16.25
2022-11-05T13:24:03.978Z,18.80
2022-11-05T13:26:25.637Z,20.23
2022-11-05T13:28:33.928Z,20.83
2022-11-05T13:30:38.231Z,15.20
2022-11-05T13:32:41.965Z,31.20
2022-11-05T13:34:43.488Z,25.40
2022-11-05T13:37:13.108Z,25.55
2022-11-05T13:39:24.075Z,22.35
2022-11-05T13:41:31.553Z,20.08
2022-11-05T13:43:39.524Z,29.83
2022-11-05T13:45:41.274Z,29.42
2022-11-05T13:47:52.394Z,15.55
2022-11-05T13:49:56.693Z,15.02
2022-11-05T13:52:04.960Z,18.10
2022-11-05T13:54:16.556Z,20.52
2022-11-05T13:56:22.588Z,15.27
2022-11-05T13:58:38.698Z,20.23
2022-11-05T14:00:48.681Z,21.80
2022-11-05T14:02:52.320Z,13.48
2022-11-05T14:05:00.992Z,21.85
2022-11-05T14:07:08.959Z,24.33
2022-11-05T14:09:13.808Z,13.80
2022-11-05T14:11:36.414Z,17.08
2022-11-05T14:13:40.762Z,18.85
2022-11-05T14:15:53.947Z,19.02
2022-11-05T14:18:00.607Z,15.40
2022-11-05T14:20:05.343Z,11.77
2022-11-05T14:22:27.543Z,10.65
2022-11-05T14:24:37.113Z,19.10
2022-11-05T14:26:38.853Z,13.40
2022-11-05T14:28:46.150Z,16.48
2022-11-05T14:30:49.709Z,15.98
2022-11-05T14:33:03.830Z,16.38
2022-11-05T14:35:16.976Z,13.07
2022-11-05T14:37:23.775Z,27.38
2022-11-05T14:39:28.976Z,23.45
2022-11-05T14:41:30.479Z,22.52
2022-11-05T14:43:33.408Z,17.83
2022-11-05T14:45:52.449Z,12.18
2022-11-05T14:48:05.120Z,14.38
2022-11-05T14:50:22.014Z,25.80
2022-11-05T14:52:23.936Z,15.55
2022-11-05T14:54:47.315Z,15.95
2022-11-05T14:56:56.402Z,16.75
2022-11-05T14:59:17.107Z,13.20
2022-11-05T15:01:19.428Z,10.75
2022-11-05T15:03:35.103Z,8.90
2022-11-05T15:05:36.851Z,5.47
2022-11-05T15:07:38.707Z,8.38
2022-11-05T15:09:40.278Z,10.77
2022-11-05T15:11:44.989Z,11.20
2022-11-05T15:13:57.923Z,15.98
2022-11-05T15:15:59.529Z,9.32
2022-11-05T15:18:03.918Z,13.75
2022-11-05T15:20:10.040Z,17.08
2022-11-05T15:22:32.870Z,12.05
2022-11-05T15:24:34.809Z,15.40
2022-11-05T15:26:36.386Z,17.70
2022-11-05T15:28:40.222Z,12.52
2022-11-05T15:30:55.275Z,16.70
2022-11-05T15:33:07.625Z,9.45
2022-11-05T15:35:18.592Z,15.63
2022-11-05T15:37:26.837Z,10.38
2022-11-05T15:39:30.607Z,14.65
2022-11-05T15:41:34.457Z,11.23
2022-11-05T15:43:47.552Z,12.32
2022-11-05T15:45:58.553Z,14.50
2022-11-05T15:48:00.005Z,11.35
2022-11-05T15:50:03.088Z,9.38
2022-11-05T15:52:05.003Z,11.63
2022-11-05T15:54:29.068Z,9.90
2022-11-05T15:56:36.444Z,7.43
2022-11-05T15:58:42.726Z,10.68
2022-11-05T16:00:46.793Z,10.05
2022-11-05T16:03:04.393Z,9.98
2022-11-05T16:05:10.867Z,5.32
2022-11-05T16:07:12.697Z,7.10
2022-11-05T16:09:31.460Z,10.90
2022-11-05T16:11:33.004Z,5.95
2022-11-05T16:13:36.131Z,8.55
2022-11-05T16:15:37.581Z,7.38
2022-11-05T16:17:46.577Z,7.25
2022-11-05T16:19:48.974Z,11.85
2022-11-05T16:21:54.726Z,12.57
2022-11-05T16:23:57.777Z,10.73
2022-11-05T16:25:59.229Z,10.60
2022-11-05T16:28:00.981Z,9.95
2022-11-05T16:30:02.436Z,8.63
2022-11-05T16:32:05.572Z,9.50
2022-11-05T16:34:07.357Z,12.32
2022-11-05T16:36:08.981Z,10.50
2022-11-05T16:38:12.682Z,9.18
2022-11-05T16:40:16.062Z,8.98
2022-11-05T16:42:21.197Z,16.70
2022-11-05T16:44:22.827Z,6.90
2022-11-05T16:46:26.126Z,13.10
2022-11-05T16:48:28.068Z,11.30
2022-11-05T16:50:32.908Z,7.28
2022-11-05T16:52:34.645Z,9.38
2022-11-05T16:54:36.258Z,10.63
2022-11-05T16:56:39.866Z,7.05
2022-11-05T16:58:42.637Z,8.20
2022-11-05T17:00:44.065Z,11.00
2022-11-05T17:02:46.043Z,8.50
2022-11-05T17:04:48.853Z,8.45
2022-11-05T17:06:58.124Z,17.58
2022-11-05T17:09:10.041Z,13.40
2022-11-05T17:11:17.307Z,5.28
2022-11-05T17:13:21.244Z,8.05
2022-11-05T17:15:27.177Z,7.97
2022-11-05T17:17:30.445Z,6.97
2022-11-05T17:19:32.129Z,8.05
2022-11-05T17:21:35.666Z,18.80
2022-11-05T17:23:38.839Z,13.40
2022-11-05T17:25:43.601Z,8.48
2022-11-05T17:27:47.552Z,11.02
2022-11-05T17:29:50.552Z,17.58
2022-11-05T17:31:54.849Z,20.60
2022-11-05T17:33:59.349Z,20.30
2022-11-05T17:36:06.872Z,16.00
2022-11-05T17:38:11.275Z,23.38
2022-11-05T17:42:15.358Z,15.50
2022-11-05T17:44:16.981Z,5.05
2022-11-05T17:46:19.340Z,10.25
2022-11-05T17:48:21.048Z,4.18
2022-11-05T17:50:22.450Z,9.38
2022-11-05T17:52:23.905Z,7.53
2022-11-05T17:54:25.408Z,11.85
2022-11-05T17:56:33.800Z,8.82
2022-11-05T17:58:35.948Z,5.32
2022-11-05T18:00:38.136Z,10.25
2022-11-05T18:02:39.770Z,9.88
2022-11-05T18:04:41.344Z,8.30
2022-11-05T18:06:43.073Z,9.65
2022-11-05T18:08:44.518Z,7.85
2022-11-05T18:10:45.985Z,8.63
2022-11-05T18:12:47.866Z,12.90
2022-11-05T18:14:49.271Z,12.77
2022-11-05T18:16:51.133Z,11.43
2022-11-05T18:18:52.578Z,9.02
2022-11-05T18:20:57.356Z,13.93
2022-11-05T18:22:58.913Z,9.55
2022-11-05T18:25:00.395Z,9.23
2022-11-05T18:27:02.097Z,12.88
2022-11-05T18:29:04.825Z,10.05
2022-11-05T18:31:18.520Z,10.20
2022-11-05T18:33:20.069Z,7.80
2022-11-05T18:35:21.618Z,8.68
2022-11-05T18:37:23.106Z,11.35
2022-11-05T18:39:24.698Z,15.73
2022-11-05T18:41:26.131Z,14.65
2022-11-05T18:43:27.596Z,11.32
2022-11-05T18:45:30.003Z,12.13
2022-11-05T18:47:32.540Z,3.47
2022-11-05T18:49:34.050Z,7.57
2022-11-05T18:51:35.571Z,8.38
2022-11-05T18:53:37.191Z,6.05
2022-11-05T18:55:39.384Z,9.18
2022-11-05T18:57:40.795Z,8.52
2022-11-05T18:59:46.587Z,6.60
2022-11-05T19:01:48.100Z,10.13
2022-11-05T19:03:51.397Z,12.65
2022-11-05T19:05:52.884Z,5.60
2022-11-05T19:07:54.317Z,19.15
2022-11-05T19:09:55.760Z,9.85
2022-11-05T19:11:57.490Z,7.90
2022-11-05T19:13:59.400Z,7.95
2022-11-05T19:16:00.847Z,19.98
2022-11-05T19:18:02.314Z,12.07
2022-11-05T19:20:04.401Z,15.32
2022-11-05T19:22:06.028Z,20.23
2022-11-05T19:24:07.807Z,14.63
2022-11-05T19:26:10.346Z,18.83
2022-11-05T19:28:12.126Z,24.83
2022-11-05T19:30:14.129Z,21.13
2022-11-05T19:32:15.608Z,14.93
2022-11-05T19:34:17.102Z,17.70
2022-11-05T19:36:20.608Z,16.75
2022-11-05T19:38:22.150Z,16.15
2022-11-05T19:40:24.109Z,17.65
2022-11-05T19:42:26.411Z,21.35
2022-11-05T19:44:28.062Z,15.07
2022-11-05T19:46:30.264Z,20.70
2022-11-05T19:48:31.830Z,25.17
2022-11-05T19:50:33.832Z,24.48
2022-11-05T19:52:35.253Z,19.77
2022-11-05T19:54:37.124Z,26.85
2022-11-05T19:56:38.682Z,25.67
2022-11-05T19:58:40.425Z,29.15
2022-11-05T20:00:42.345Z,32.25
2022-11-05T20:02:45.264Z,26.60
2022-11-05T20:04:46.940Z,21.67
2022-11-05T20:06:48.500Z,22.77
2022-11-05T20:09:21.526Z,32.45
2022-11-05T20:11:11.964Z,24.88
2022-11-05T20:13:19.698Z,38.22
2022-11-05T20:15:28.217Z,33.53
2022-11-05T20:17:31.789Z,34.17
2022-11-05T20:19:35.882Z,40.17
2022-11-05T20:21:40.371Z,34.95
2022-11-05T20:23:44.285Z,26.73
2022-11-05T20:25:48.342Z,26.85
2022-11-05T20:27:52.278Z,22.02
2022-11-05T20:29:55.433Z,27.05
2022-11-05T20:31:59.539Z,15.13
2022-11-05T20:34:02.745Z,22.85
2022-11-05T20:36:07.720Z,16.48
2022-11-05T20:38:11.479Z,19.95
2022-11-05T20:40:15.052Z,17.35
2022-11-05T20:42:18.345Z,18.20
2022-11-05T20:44:22.766Z,22.02
2022-11-05T20:46:25.124Z,21.73
2022-11-05T20:48:26.741Z,22.50
2022-11-05T20:50:28.187Z,10.48
2022-11-05T20:52:29.599Z,11.75
2022-11-05T20:54:31.182Z,14.40
2022-11-05T20:56:34.644Z,22.48
2022-11-05T20:58:36.849Z,14.52
2022-11-05T21:00:38.708Z,15.13
2022-11-05T21:02:41.855Z,15.15
2022-11-05T21:04:43.722Z,13.50
2022-11-05T21:06:45.303Z,8.57
2022-11-05T21:08:47.348Z,9.60
2022-11-05T21:10:51.396Z,16.27
2022-11-05T21:12:52.985Z,14.93
2022-11-05T21:14:54.506Z,10.25
2022-11-05T21:16:56.174Z,11.75
2022-11-05T21:18:57.675Z,7.70
2022-11-05T21:21:04.577Z,8.40
2022-11-05T21:23:06.240Z,12.50
2022-11-05T21:25:09.645Z,7.50
2022-11-05T21:27:11.513Z,14.13
2022-11-05T21:29:13.094Z,12.40
2022-11-05T21:31:14.863Z,12.68
2022-11-05T21:33:17.435Z,14.35
2022-11-05T21:35:18.944Z,14.30
2022-11-05T21:37:21.633Z,5.75
2022-11-05T21:39:23.293Z,14.95
2022-11-05T21:41:25.221Z,19.42
2022-11-05T21:43:26.652Z,11.90
2022-11-05T21:45:28.411Z,10.80
2022-11-05T21:47:30.453Z,13.48
2022-11-05T21:49:34.219Z,12.95
2022-11-05T21:51:54.088Z,7.97
2022-11-05T21:54:14.525Z,27.67
2022-11-05T21:56:39.431Z,11.35
2022-11-05T21:58:59.750Z,9.77
2022-11-05T22:01:01.918Z,12.77
2022-11-05T22:03:03.845Z,13.23
2022-11-05T22:05:07.482Z,21.15
2022-11-05T22:07:10.196Z,13.32
2022-11-05T22:09:12.052Z,17.73
2022-11-05T22:11:13.735Z,11.55
2022-11-05T22:13:15.223Z,12.07
2022-11-05T22:15:16.709Z,20.65
2022-11-05T22:17:18.456Z,23.23
2022-11-05T22:19:20.133Z,15.73
2022-11-05T22:21:21.596Z,19.65
2022-11-05T22:23:23.068Z,14.85
2022-11-05T22:25:24.630Z,14.77
2022-11-05T22:27:26.060Z,10.38
2022-11-05T22:29:28.015Z,14.40
2022-11-05T22:31:34.750Z,11.77
2022-11-05T22:33:37.616Z,16.38
2022-11-05T22:35:39.295Z,18.90
2022-11-05T22:37:40.768Z,19.77
2022-11-05T22:39:42.249Z,18.50
2022-11-05T22:41:43.806Z,12.45
2022-11-05T22:43:45.882Z,16.55
2022-11-05T22:45:47.878Z,11.63
2022-11-05T22:47:49.321Z,10.77
2022-11-05T22:49:51.049Z,8.05
2022-11-05T22:51:52.642Z,10.70
2022-11-05T22:53:54.906Z,8.57
2022-11-05T22:55:56.361Z,11.80
2022-11-05T22:57:57.774Z,12.02
2022-11-05T22:59:59.394Z,18.90
2022-11-05T23:02:05.172Z,21.75
2022-11-05T23:04:10.000Z,11.50
2022-11-05T23:06:34.034Z,18.08
2022-11-05T23:08:54.088Z,14.90
2022-11-05T23:11:13.967Z,14.40
2022-11-05T23:13:15.411Z,12.02
2022-11-05T23:15:38.958Z,11.88
2022-11-05T23:18:01.445Z,9.10
2022-11-05T23:20:32.906Z,15.18
2022-11-05T23:22:55.435Z,7.43
2022-11-05T23:24:58.436Z,12.18
2022-11-05T23:27:02.239Z,7.43
2022-11-05T23:29:05.130Z,14.18
2022-11-05T23:31:28.180Z,13.80
2022-11-05T23:33:34.168Z,10.98
2022-11-05T23:35:56.041Z,19.55
2022-11-05T23:38:17.976Z,6.57
2022-11-05T23:40:23.447Z,11.77
2022-11-05T23:42:44.353Z,10.10
2022-11-05T23:45:08.250Z,11.65
2022-11-05T23:47:32.527Z,7.72
2022-11-05T23:49:36.018Z,11.32
2022-11-05T23:51:37.885Z,11.30
2022-11-05T23:53:40.421Z,16.67
2022-11-05T23:55:42.127Z,6.35
2022-11-05T23:57:43.781Z,9.23
2022-11-05T23:59:45.205Z,10.52
